sensor_id;sensor_type;location;lat;lon;timestamp;P1;durP1;ratioP1;P2;durP2;ratioP2
70049;SDS011;57391;51.306;22.680;2023-08-17T00:01:34;20.80;;;15.40;;
70049;SDS011;57391;51.306;22.680;2023-08-17T00:04:01;19.30;;;14.70;;
70049;SDS011;57391;51.306;22.680;2023-08-17T00:06:28;21.00;;;15.00;;
70049;SDS011;57391;51.306;22.680;2023-08-17T00:08:55;22.10;;;15.50;;
70049;SDS011;57391;51.306;22.680;2023-08-17T00:11:22;21.50;;;15.80;;
70049;SDS011;57391;51.306;22.680;2023-08-17T00:13:49;24.00;;;17.00;;
70049;SDS011;57391;51.306;22.680;2023-08-17T00:16:16;22.20;;;16.70;;
70049;SDS011;57391;51.306;22.680;2023-08-17T00:18:43;20.30;;;15.60;;
70049;SDS011;57391;51.306;22.680;2023-08-17T00:21:10;23.70;;;15.50;;
70049;SDS011;57391;51.306;22.680;2023-08-17T00:23:37;22.20;;;15.20;;
70049;SDS011;57391;51.306;22.680;2023-08-17T00:26:04;22.60;;;15.70;;
70049;SDS011;57391;51.306;22.680;2023-08-17T00:28:32;26.80;;;15.40;;
70049;SDS011;57391;51.306;22.680;2023-08-17T00:30:59;23.40;;;16.10;;
70049;SDS011;57391;51.306;22.680;2023-08-17T00:33:27;22.10;;;15.30;;
70049;SDS011;57391;51.306;22.680;2023-08-17T00:35:54;27.30;;;16.60;;
70049;SDS011;57391;51.306;22.680;2023-08-17T00:38:21;21.90;;;15.90;;
70049;SDS011;57391;51.306;22.680;2023-08-17T00:40:48;20.40;;;15.70;;
70049;SDS011;57391;51.306;22.680;2023-08-17T00:43:15;25.60;;;16.50;;
70049;SDS011;57391;51.306;22.680;2023-08-17T00:45:43;21.20;;;17.00;;
70049;SDS011;57391;51.306;22.680;2023-08-17T00:48:13;25.10;;;16.50;;
70049;SDS011;57391;51.306;22.680;2023-08-17T00:50:41;21.10;;;16.50;;
70049;SDS011;57391;51.306;22.680;2023-08-17T00:53:08;20.70;;;16.10;;
70049;SDS011;57391;51.306;22.680;2023-08-17T00:55:40;23.30;;;17.30;;
70049;SDS011;57391;51.306;22.680;2023-08-17T00:58:07;20.80;;;15.60;;
70049;SDS011;57391;51.306;22.680;2023-08-17T01:00:34;23.30;;;16.30;;
70049;SDS011;57391;51.306;22.680;2023-08-17T01:03:02;21.90;;;16.00;;
70049;SDS011;57391;51.306;22.680;2023-08-17T01:05:30;22.00;;;15.90;;
70049;SDS011;57391;51.306;22.680;2023-08-17T01:07:59;22.90;;;17.00;;
70049;SDS011;57391;51.306;22.680;2023-08-17T01:10:31;21.90;;;16.20;;
70049;SDS011;57391;51.306;22.680;2023-08-17T01:16:36;21.20;;;15.90;;
70049;SDS011;57391;51.306;22.680;2023-08-17T01:19:08;20.60;;;15.20;;
70049;SDS011;57391;51.306;22.680;2023-08-17T01:21:44;19.70;;;15.10;;
70049;SDS011;57391;51.306;22.680;2023-08-17T01:24:16;20.00;;;15.20;;
70049;SDS011;57391;51.306;22.680;2023-08-17T01:26:43;19.50;;;15.30;;
70049;SDS011;57391;51.306;22.680;2023-08-17T01:29:10;18.00;;;14.80;;
70049;SDS011;57391;51.306;22.680;2023-08-17T01:31:47;18.90;;;14.60;;
70049;SDS011;57391;51.306;22.680;2023-08-17T01:34:25;19.50;;;15.30;;
70049;SDS011;57391;51.306;22.680;2023-08-17T01:37:00;19.30;;;15.00;;
70049;SDS011;57391;51.306;22.680;2023-08-17T01:39:37;21.30;;;14.80;;
70049;SDS011;57391;51.306;22.680;2023-08-17T01:42:10;22.20;;;15.90;;
70049;SDS011;57391;51.306;22.680;2023-08-17T01:44:39;22.30;;;15.70;;
70049;SDS011;57391;51.306;22.680;2023-08-17T01:47:06;22.30;;;14.60;;
70049;SDS011;57391;51.306;22.680;2023-08-17T01:49:33;20.00;;;14.70;;
70049;SDS011;57391;51.306;22.680;2023-08-17T01:52:00;21.70;;;14.60;;
70049;SDS011;57391;51.306;22.680;2023-08-17T01:54:27;21.40;;;15.40;;
70049;SDS011;57391;51.306;22.680;2023-08-17T01:56:54;18.30;;;14.70;;
70049;SDS011;57391;51.306;22.680;2023-08-17T01:59:21;22.40;;;14.80;;
70049;SDS011;57391;51.306;22.680;2023-08-17T02:01:47;24.60;;;14.90;;
70049;SDS011;57391;51.306;22.680;2023-08-17T02:04:15;19.50;;;14.60;;
70049;SDS011;57391;51.306;22.680;2023-08-17T02:06:42;18.30;;;15.00;;
70049;SDS011;57391;51.306;22.680;2023-08-17T02:09:09;20.90;;;14.90;;
70049;SDS011;57391;51.306;22.680;2023-08-17T02:11:36;20.90;;;15.00;;
70049;SDS011;57391;51.306;22.680;2023-08-17T02:14:03;20.00;;;14.60;;
70049;SDS011;57391;51.306;22.680;2023-08-17T02:16:30;21.30;;;15.30;;
70049;SDS011;57391;51.306;22.680;2023-08-17T02:18:57;22.30;;;15.00;;
70049;SDS011;57391;51.306;22.680;2023-08-17T02:21:25;19.10;;;14.80;;
70049;SDS011;57391;51.306;22.680;2023-08-17T02:23:52;23.80;;;15.60;;
70049;SDS011;57391;51.306;22.680;2023-08-17T02:26:19;22.20;;;15.10;;
70049;SDS011;57391;51.306;22.680;2023-08-17T02:28:45;22.80;;;14.20;;
70049;SDS011;57391;51.306;22.680;2023-08-17T02:31:12;21.00;;;14.30;;
70049;SDS011;57391;51.306;22.680;2023-08-17T02:33:39;19.80;;;15.30;;
70049;SDS011;57391;51.306;22.680;2023-08-17T02:36:06;20.80;;;15.00;;
70049;SDS011;57391;51.306;22.680;2023-08-17T02:38:33;22.90;;;14.60;;
70049;SDS011;57391;51.306;22.680;2023-08-17T02:41:00;24.00;;;15.40;;
70049;SDS011;57391;51.306;22.680;2023-08-17T02:43:27;20.50;;;15.20;;
70049;SDS011;57391;51.306;22.680;2023-08-17T02:45:53;18.50;;;14.80;;
70049;SDS011;57391;51.306;22.680;2023-08-17T02:48:20;21.40;;;15.30;;
70049;SDS011;57391;51.306;22.680;2023-08-17T02:50:47;18.90;;;14.60;;
70049;SDS011;57391;51.306;22.680;2023-08-17T02:53:14;21.20;;;14.80;;
70049;SDS011;57391;51.306;22.680;2023-08-17T02:55:44;19.80;;;16.00;;
70049;SDS011;57391;51.306;22.680;2023-08-17T02:58:11;21.80;;;14.80;;
70049;SDS011;57391;51.306;22.680;2023-08-17T03:00:37;20.60;;;16.60;;
70049;SDS011;57391;51.306;22.680;2023-08-17T03:03:04;19.40;;;15.40;;
70049;SDS011;57391;51.306;22.680;2023-08-17T03:05:31;19.80;;;16.20;;
70049;SDS011;57391;51.306;22.680;2023-08-17T03:07:59;19.20;;;15.30;;
70049;SDS011;57391;51.306;22.680;2023-08-17T03:10:27;19.70;;;15.40;;
70049;SDS011;57391;51.306;22.680;2023-08-17T03:12:54;18.00;;;14.40;;
70049;SDS011;57391;51.306;22.680;2023-08-17T03:15:20;22.30;;;15.20;;
70049;SDS011;57391;51.306;22.680;2023-08-17T03:17:47;21.90;;;15.20;;
70049;SDS011;57391;51.306;22.680;2023-08-17T03:20:14;24.10;;;15.30;;
70049;SDS011;57391;51.306;22.680;2023-08-17T03:22:41;20.80;;;14.80;;
70049;SDS011;57391;51.306;22.680;2023-08-17T03:25:08;19.70;;;15.20;;
70049;SDS011;57391;51.306;22.680;2023-08-17T03:27:36;21.00;;;14.70;;
70049;SDS011;57391;51.306;22.680;2023-08-17T03:30:04;19.60;;;14.90;;
70049;SDS011;57391;51.306;22.680;2023-08-17T03:32:32;18.70;;;14.70;;
70049;SDS011;57391;51.306;22.680;2023-08-17T03:34:58;21.60;;;14.90;;
70049;SDS011;57391;51.306;22.680;2023-08-17T03:37:25;20.60;;;15.20;;
70049;SDS011;57391;51.306;22.680;2023-08-17T03:39:52;19.60;;;14.70;;
70049;SDS011;57391;51.306;22.680;2023-08-17T03:42:19;19.20;;;15.30;;
70049;SDS011;57391;51.306;22.680;2023-08-17T03:44:46;21.40;;;15.20;;
70049;SDS011;57391;51.306;22.680;2023-08-17T03:47:12;24.40;;;15.10;;
70049;SDS011;57391;51.306;22.680;2023-08-17T03:49:40;20.10;;;14.90;;
70049;SDS011;57391;51.306;22.680;2023-08-17T03:52:07;19.20;;;14.80;;
70049;SDS011;57391;51.306;22.680;2023-08-17T03:54:35;20.20;;;15.10;;
70049;SDS011;57391;51.306;22.680;2023-08-17T03:57:02;19.10;;;15.30;;
70049;SDS011;57391;51.306;22.680;2023-08-17T03:59:29;21.40;;;15.40;;
70049;SDS011;57391;51.306;22.680;2023-08-17T04:01:56;18.00;;;15.00;;
70049;SDS011;57391;51.306;22.680;2023-08-17T04:04:23;21.30;;;15.20;;
70049;SDS011;57391;51.306;22.680;2023-08-17T04:06:50;22.40;;;15.90;;
70049;SDS011;57391;51.306;22.680;2023-08-17T04:09:17;19.90;;;14.90;;
70049;SDS011;57391;51.306;22.680;2023-08-17T04:11:44;20.00;;;14.70;;
70049;SDS011;57391;51.306;22.680;2023-08-17T04:14:11;20.60;;;14.40;;
70049;SDS011;57391;51.306;22.680;2023-08-17T04:16:38;18.70;;;14.90;;
70049;SDS011;57391;51.306;22.680;2023-08-17T04:19:05;20.90;;;15.20;;
70049;SDS011;57391;51.306;22.680;2023-08-17T04:21:32;19.30;;;14.50;;
70049;SDS011;57391;51.306;22.680;2023-08-17T04:23:59;18.70;;;15.50;;
70049;SDS011;57391;51.306;22.680;2023-08-17T04:26:26;21.70;;;14.50;;
70049;SDS011;57391;51.306;22.680;2023-08-17T04:28:53;19.80;;;15.00;;
70049;SDS011;57391;51.306;22.680;2023-08-17T04:31:20;20.60;;;15.00;;
70049;SDS011;57391;51.306;22.680;2023-08-17T04:33:53;21.00;;;14.30;;
70049;SDS011;57391;51.306;22.680;2023-08-17T04:36:19;18.40;;;14.90;;
70049;SDS011;57391;51.306;22.680;2023-08-17T04:38:46;21.00;;;14.90;;
70049;SDS011;57391;51.306;22.680;2023-08-17T04:41:13;20.30;;;14.30;;
70049;SDS011;57391;51.306;22.680;2023-08-17T04:43:40;19.50;;;14.30;;
70049;SDS011;57391;51.306;22.680;2023-08-17T04:46:08;19.90;;;15.10;;
70049;SDS011;57391;51.306;22.680;2023-08-17T04:48:34;20.30;;;14.80;;
70049;SDS011;57391;51.306;22.680;2023-08-17T04:51:04;18.90;;;14.00;;
70049;SDS011;57391;51.306;22.680;2023-08-17T04:53:31;22.00;;;15.10;;
70049;SDS011;57391;51.306;22.680;2023-08-17T04:56:02;17.50;;;14.40;;
70049;SDS011;57391;51.306;22.680;2023-08-17T04:58:29;20.10;;;14.70;;
70049;SDS011;57391;51.306;22.680;2023-08-17T05:00:58;19.60;;;14.80;;
70049;SDS011;57391;51.306;22.680;2023-08-17T05:03:26;19.60;;;14.60;;
70049;SDS011;57391;51.306;22.680;2023-08-17T05:05:53;20.00;;;14.60;;
70049;SDS011;57391;51.306;22.680;2023-08-17T05:08:20;18.10;;;15.30;;
70049;SDS011;57391;51.306;22.680;2023-08-17T05:10:49;21.10;;;15.70;;
70049;SDS011;57391;51.306;22.680;2023-08-17T05:13:16;18.40;;;15.30;;
70049;SDS011;57391;51.306;22.680;2023-08-17T05:15:44;19.00;;;15.00;;
70049;SDS011;57391;51.306;22.680;2023-08-17T05:18:11;19.10;;;14.80;;
70049;SDS011;57391;51.306;22.680;2023-08-17T05:20:38;20.00;;;14.80;;
70049;SDS011;57391;51.306;22.680;2023-08-17T05:23:05;19.40;;;14.00;;
70049;SDS011;57391;51.306;22.680;2023-08-17T05:25:32;22.60;;;14.70;;
70049;SDS011;57391;51.306;22.680;2023-08-17T05:27:59;20.00;;;15.20;;
70049;SDS011;57391;51.306;22.680;2023-08-17T05:30:26;18.40;;;14.00;;
70049;SDS011;57391;51.306;22.680;2023-08-17T05:32:53;20.90;;;15.40;;
70049;SDS011;57391;51.306;22.680;2023-08-17T05:35:21;18.60;;;14.70;;
70049;SDS011;57391;51.306;22.680;2023-08-17T05:37:48;21.80;;;15.30;;
70049;SDS011;57391;51.306;22.680;2023-08-17T05:40:15;19.40;;;15.30;;
70049;SDS011;57391;51.306;22.680;2023-08-17T05:42:42;22.10;;;14.60;;
70049;SDS011;57391;51.306;22.680;2023-08-17T05:45:09;19.90;;;14.40;;
70049;SDS011;57391;51.306;22.680;2023-08-17T05:47:36;20.00;;;13.20;;
70049;SDS011;57391;51.306;22.680;2023-08-17T05:50:03;18.00;;;14.20;;
70049;SDS011;57391;51.306;22.680;2023-08-17T05:52:31;19.00;;;13.80;;
70049;SDS011;57391;51.306;22.680;2023-08-17T05:54:58;17.20;;;13.60;;
70049;SDS011;57391;51.306;22.680;2023-08-17T05:57:25;19.60;;;13.90;;
70049;SDS011;57391;51.306;22.680;2023-08-17T05:59:52;20.40;;;13.40;;
70049;SDS011;57391;51.306;22.680;2023-08-17T06:02:19;17.10;;;13.70;;
70049;SDS011;57391;51.306;22.680;2023-08-17T06:04:47;17.60;;;13.30;;
70049;SDS011;57391;51.306;22.680;2023-08-17T06:07:14;17.90;;;13.10;;
70049;SDS011;57391;51.306;22.680;2023-08-17T06:09:41;21.70;;;13.90;;
70049;SDS011;57391;51.306;22.680;2023-08-17T06:12:08;16.20;;;13.50;;
70049;SDS011;57391;51.306;22.680;2023-08-17T06:14:35;19.10;;;12.90;;
70049;SDS011;57391;51.306;22.680;2023-08-17T06:17:02;16.80;;;12.30;;
70049;SDS011;57391;51.306;22.680;2023-08-17T06:19:29;19.70;;;12.30;;
70049;SDS011;57391;51.306;22.680;2023-08-17T06:21:56;17.80;;;12.80;;
70049;SDS011;57391;51.306;22.680;2023-08-17T06:24:23;16.40;;;13.30;;
70049;SDS011;57391;51.306;22.680;2023-08-17T06:26:50;20.20;;;13.70;;
70049;SDS011;57391;51.306;22.680;2023-08-17T06:29:17;17.70;;;14.00;;
70049;SDS011;57391;51.306;22.680;2023-08-17T06:31:44;17.80;;;13.40;;
70049;SDS011;57391;51.306;22.680;2023-08-17T06:34:11;20.60;;;13.90;;
70049;SDS011;57391;51.306;22.680;2023-08-17T06:36:38;19.40;;;13.60;;
70049;SDS011;57391;51.306;22.680;2023-08-17T06:39:06;17.70;;;13.20;;
70049;SDS011;57391;51.306;22.680;2023-08-17T06:41:33;16.50;;;12.50;;
70049;SDS011;57391;51.306;22.680;2023-08-17T06:44:00;17.80;;;12.40;;
70049;SDS011;57391;51.306;22.680;2023-08-17T06:46:27;17.50;;;12.00;;
70049;SDS011;57391;51.306;22.680;2023-08-17T06:48:54;14.40;;;11.20;;
70049;SDS011;57391;51.306;22.680;2023-08-17T06:51:21;16.60;;;12.00;;
70049;SDS011;57391;51.306;22.680;2023-08-17T06:53:48;15.60;;;11.10;;
70049;SDS011;57391;51.306;22.680;2023-08-17T06:56:15;16.40;;;11.30;;
70049;SDS011;57391;51.306;22.680;2023-08-17T06:58:42;15.00;;;10.90;;
70049;SDS011;57391;51.306;22.680;2023-08-17T07:01:08;14.70;;;11.30;;
70049;SDS011;57391;51.306;22.680;2023-08-17T07:03:36;20.60;;;12.60;;
70049;SDS011;57391;51.306;22.680;2023-08-17T07:06:02;18.40;;;11.90;;
70049;SDS011;57391;51.306;22.680;2023-08-17T07:08:30;18.30;;;12.50;;
70049;SDS011;57391;51.306;22.680;2023-08-17T07:10:57;18.40;;;12.30;;
70049;SDS011;57391;51.306;22.680;2023-08-17T07:13:24;16.30;;;12.30;;
70049;SDS011;57391;51.306;22.680;2023-08-17T07:15:51;14.90;;;12.20;;
70049;SDS011;57391;51.306;22.680;2023-08-17T07:18:17;18.40;;;11.90;;
70049;SDS011;57391;51.306;22.680;2023-08-17T07:20:44;14.40;;;11.60;;
70049;SDS011;57391;51.306;22.680;2023-08-17T07:23:11;15.50;;;11.40;;
70049;SDS011;57391;51.306;22.680;2023-08-17T07:25:38;15.10;;;11.90;;
70049;SDS011;57391;51.306;22.680;2023-08-17T07:28:05;17.80;;;11.90;;
70049;SDS011;57391;51.306;22.680;2023-08-17T07:30:33;17.10;;;12.40;;
70049;SDS011;57391;51.306;22.680;2023-08-17T07:33:00;15.20;;;12.50;;
70049;SDS011;57391;51.306;22.680;2023-08-17T07:35:27;14.70;;;11.90;;
70049;SDS011;57391;51.306;22.680;2023-08-17T07:37:54;14.70;;;11.90;;
70049;SDS011;57391;51.306;22.680;2023-08-17T07:40:20;16.10;;;12.40;;
70049;SDS011;57391;51.306;22.680;2023-08-17T07:42:47;13.70;;;10.70;;
70049;SDS011;57391;51.306;22.680;2023-08-17T07:45:14;16.00;;;10.00;;
70049;SDS011;57391;51.306;22.680;2023-08-17T07:47:41;15.90;;;11.00;;
70049;SDS011;57391;51.306;22.680;2023-08-17T07:50:08;13.60;;;9.80;;
70049;SDS011;57391;51.306;22.680;2023-08-17T07:52:35;19.00;;;10.00;;
70049;SDS011;57391;51.306;22.680;2023-08-17T07:55:02;14.70;;;9.90;;
70049;SDS011;57391;51.306;22.680;2023-08-17T07:57:29;15.00;;;10.30;;
70049;SDS011;57391;51.306;22.680;2023-08-17T07:59:56;14.60;;;10.70;;
70049;SDS011;57391;51.306;22.680;2023-08-17T08:02:24;14.00;;;10.20;;
70049;SDS011;57391;51.306;22.680;2023-08-17T08:04:51;16.10;;;9.70;;
70049;SDS011;57391;51.306;22.680;2023-08-17T08:07:18;14.20;;;10.00;;
70049;SDS011;57391;51.306;22.680;2023-08-17T08:09:44;15.10;;;9.90;;
70049;SDS011;57391;51.306;22.680;2023-08-17T08:12:11;12.00;;;9.50;;
70049;SDS011;57391;51.306;22.680;2023-08-17T08:14:38;14.90;;;9.80;;
70049;SDS011;57391;51.306;22.680;2023-08-17T08:17:05;12.40;;;9.00;;
70049;SDS011;57391;51.306;22.680;2023-08-17T08:19:32;13.10;;;8.80;;
70049;SDS011;57391;51.306;22.680;2023-08-17T08:21:59;13.20;;;9.20;;
70049;SDS011;57391;51.306;22.680;2023-08-17T08:24:26;15.10;;;9.90;;
70049;SDS011;57391;51.306;22.680;2023-08-17T08:26:57;16.50;;;10.20;;
70049;SDS011;57391;51.306;22.680;2023-08-17T08:29:24;12.50;;;9.20;;
70049;SDS011;57391;51.306;22.680;2023-08-17T08:31:51;12.20;;;8.50;;
70049;SDS011;57391;51.306;22.680;2023-08-17T08:34:18;11.60;;;8.10;;
70049;SDS011;57391;51.306;22.680;2023-08-17T08:36:45;11.00;;;8.20;;
70049;SDS011;57391;51.306;22.680;2023-08-17T08:39:11;11.50;;;8.20;;
70049;SDS011;57391;51.306;22.680;2023-08-17T08:41:40;11.00;;;8.10;;
70049;SDS011;57391;51.306;22.680;2023-08-17T08:44:07;12.00;;;8.30;;
70049;SDS011;57391;51.306;22.680;2023-08-17T08:46:34;11.60;;;8.30;;
70049;SDS011;57391;51.306;22.680;2023-08-17T08:49:10;12.70;;;8.60;;
70049;SDS011;57391;51.306;22.680;2023-08-17T08:51:44;10.30;;;7.90;;
70049;SDS011;57391;51.306;22.680;2023-08-17T08:54:14;11.40;;;8.10;;
70049;SDS011;57391;51.306;22.680;2023-08-17T08:56:51;13.40;;;8.20;;
70049;SDS011;57391;51.306;22.680;2023-08-17T08:59:26;11.60;;;8.50;;
70049;SDS011;57391;51.306;22.680;2023-08-17T09:01:55;13.00;;;9.30;;
70049;SDS011;57391;51.306;22.680;2023-08-17T09:04:25;13.20;;;10.00;;
70049;SDS011;57391;51.306;22.680;2023-08-17T09:06:53;12.70;;;9.50;;
70049;SDS011;57391;51.306;22.680;2023-08-17T09:09:22;12.50;;;9.00;;
70049;SDS011;57391;51.306;22.680;2023-08-17T09:11:49;12.70;;;9.00;;
70049;SDS011;57391;51.306;22.680;2023-08-17T09:14:16;13.40;;;9.20;;
70049;SDS011;57391;51.306;22.680;2023-08-17T09:16:43;14.00;;;9.10;;
70049;SDS011;57391;51.306;22.680;2023-08-17T09:19:10;12.30;;;9.30;;
70049;SDS011;57391;51.306;22.680;2023-08-17T09:21:37;11.00;;;8.60;;
70049;SDS011;57391;51.306;22.680;2023-08-17T09:24:04;11.20;;;8.70;;
70049;SDS011;57391;51.306;22.680;2023-08-17T09:26:33;11.50;;;8.00;;
70049;SDS011;57391;51.306;22.680;2023-08-17T09:29:00;11.10;;;7.80;;
70049;SDS011;57391;51.306;22.680;2023-08-17T09:31:30;12.00;;;8.80;;
70049;SDS011;57391;51.306;22.680;2023-08-17T09:33:58;10.00;;;7.20;;
70049;SDS011;57391;51.306;22.680;2023-08-17T09:36:35;15.70;;;7.70;;
70049;SDS011;57391;51.306;22.680;2023-08-17T09:39:02;9.70;;;7.10;;
70049;SDS011;57391;51.306;22.680;2023-08-17T09:41:30;9.40;;;6.90;;
70049;SDS011;57391;51.306;22.680;2023-08-17T09:43:57;9.10;;;6.50;;
70049;SDS011;57391;51.306;22.680;2023-08-17T09:46:23;9.70;;;6.10;;
70049;SDS011;57391;51.306;22.680;2023-08-17T09:48:53;9.50;;;5.80;;
70049;SDS011;57391;51.306;22.680;2023-08-17T09:51:23;9.80;;;6.60;;
70049;SDS011;57391;51.306;22.680;2023-08-17T09:53:53;8.90;;;5.70;;
70049;SDS011;57391;51.306;22.680;2023-08-17T09:56:24;8.10;;;5.00;;
70049;SDS011;57391;51.306;22.680;2023-08-17T09:58:53;8.70;;;5.20;;
70049;SDS011;57391;51.306;22.680;2023-08-17T10:01:21;7.80;;;4.90;;
70049;SDS011;57391;51.306;22.680;2023-08-17T10:03:50;10.30;;;5.10;;
70049;SDS011;57391;51.306;22.680;2023-08-17T10:06:22;7.30;;;5.00;;
70049;SDS011;57391;51.306;22.680;2023-08-17T10:08:52;27.00;;;6.10;;
70049;SDS011;57391;51.306;22.680;2023-08-17T10:11:21;10.20;;;4.60;;
70049;SDS011;57391;51.306;22.680;2023-08-17T10:14:06;12.00;;;5.00;;
70049;SDS011;57391;51.306;22.680;2023-08-17T10:16:50;9.00;;;4.90;;
70049;SDS011;57391;51.306;22.680;2023-08-17T10:19:52;7.20;;;4.40;;
70049;SDS011;57391;51.306;22.680;2023-08-17T10:22:48;9.70;;;4.70;;
70049;SDS011;57391;51.306;22.680;2023-08-17T10:25:23;7.20;;;4.40;;
70049;SDS011;57391;51.306;22.680;2023-08-17T10:27:51;8.40;;;4.60;;
70049;SDS011;57391;51.306;22.680;2023-08-17T10:30:20;7.10;;;4.30;;
70049;SDS011;57391;51.306;22.680;2023-08-17T10:32:47;8.20;;;4.40;;
70049;SDS011;57391;51.306;22.680;2023-08-17T10:35:15;6.20;;;3.90;;
70049;SDS011;57391;51.306;22.680;2023-08-17T10:37:43;8.20;;;4.00;;
70049;SDS011;57391;51.306;22.680;2023-08-17T10:40:10;9.60;;;4.20;;
70049;SDS011;57391;51.306;22.680;2023-08-17T10:42:37;8.80;;;4.20;;
70049;SDS011;57391;51.306;22.680;2023-08-17T10:50:37;6.30;;;4.00;;
70049;SDS011;57391;51.306;22.680;2023-08-17T10:53:10;8.80;;;4.30;;
70049;SDS011;57391;51.306;22.680;2023-08-17T10:55:40;9.30;;;4.50;;
70049;SDS011;57391;51.306;22.680;2023-08-17T10:58:08;7.60;;;3.80;;
70049;SDS011;57391;51.306;22.680;2023-08-17T11:00:36;6.30;;;3.70;;
70049;SDS011;57391;51.306;22.680;2023-08-17T11:03:05;6.70;;;4.10;;
70049;SDS011;57391;51.306;22.680;2023-08-17T11:08:08;8.40;;;4.80;;
70049;SDS011;57391;51.306;22.680;2023-08-17T11:10:36;7.30;;;4.50;;
70049;SDS011;57391;51.306;22.680;2023-08-17T11:13:04;7.50;;;4.50;;
70049;SDS011;57391;51.306;22.680;2023-08-17T11:15:41;6.10;;;4.40;;
70049;SDS011;57391;51.306;22.680;2023-08-17T11:18:09;10.50;;;4.70;;
70049;SDS011;57391;51.306;22.680;2023-08-17T11:20:38;8.20;;;4.40;;
70049;SDS011;57391;51.306;22.680;2023-08-17T11:23:06;6.40;;;4.40;;
70049;SDS011;57391;51.306;22.680;2023-08-17T11:25:34;7.30;;;4.40;;
70049;SDS011;57391;51.306;22.680;2023-08-17T11:28:06;7.80;;;4.80;;
70049;SDS011;57391;51.306;22.680;2023-08-17T11:30:36;8.10;;;4.40;;
70049;SDS011;57391;51.306;22.680;2023-08-17T11:33:06;7.30;;;4.90;;
70049;SDS011;57391;51.306;22.680;2023-08-17T11:35:35;7.90;;;4.70;;
70049;SDS011;57391;51.306;22.680;2023-08-17T11:38:02;8.60;;;5.00;;
70049;SDS011;57391;51.306;22.680;2023-08-17T11:40:30;7.00;;;4.50;;
70049;SDS011;57391;51.306;22.680;2023-08-17T11:42:57;9.50;;;5.60;;
70049;SDS011;57391;51.306;22.680;2023-08-17T11:45:25;7.70;;;5.10;;
70049;SDS011;57391;51.306;22.680;2023-08-17T11:47:52;7.80;;;4.80;;
70049;SDS011;57391;51.306;22.680;2023-08-17T11:50:18;7.60;;;4.50;;
70049;SDS011;57391;51.306;22.680;2023-08-17T11:52:45;6.20;;;4.50;;
70049;SDS011;57391;51.306;22.680;2023-08-17T11:55:16;9.40;;;5.20;;
70049;SDS011;57391;51.306;22.680;2023-08-17T11:57:46;7.40;;;4.70;;
70049;SDS011;57391;51.306;22.680;2023-08-17T12:00:20;9.10;;;5.60;;
70049;SDS011;57391;51.306;22.680;2023-08-17T12:02:49;9.60;;;4.80;;
70049;SDS011;57391;51.306;22.680;2023-08-17T12:05:21;12.30;;;4.90;;
70049;SDS011;57391;51.306;22.680;2023-08-17T12:07:50;8.40;;;4.70;;
70049;SDS011;57391;51.306;22.680;2023-08-17T12:10:19;7.30;;;5.50;;
70049;SDS011;57391;51.306;22.680;2023-08-17T12:12:49;9.10;;;5.20;;
70049;SDS011;57391;51.306;22.680;2023-08-17T12:15:16;7.30;;;4.80;;
70049;SDS011;57391;51.306;22.680;2023-08-17T12:17:48;8.90;;;5.50;;
70049;SDS011;57391;51.306;22.680;2023-08-17T12:20:17;6.90;;;5.20;;
70049;SDS011;57391;51.306;22.680;2023-08-17T12:22:47;11.10;;;5.60;;
70049;SDS011;57391;51.306;22.680;2023-08-17T12:25:14;9.60;;;5.40;;
70049;SDS011;57391;51.306;22.680;2023-08-17T12:27:42;9.50;;;5.00;;
70049;SDS011;57391;51.306;22.680;2023-08-17T12:30:14;7.40;;;5.00;;
70049;SDS011;57391;51.306;22.680;2023-08-17T12:32:51;10.30;;;5.20;;
70049;SDS011;57391;51.306;22.680;2023-08-17T12:35:18;8.70;;;5.60;;
70049;SDS011;57391;51.306;22.680;2023-08-17T12:37:47;11.20;;;5.50;;
70049;SDS011;57391;51.306;22.680;2023-08-17T12:40:14;12.60;;;5.20;;
70049;SDS011;57391;51.306;22.680;2023-08-17T12:42:41;8.90;;;5.00;;
70049;SDS011;57391;51.306;22.680;2023-08-17T12:45:09;7.80;;;5.50;;
70049;SDS011;57391;51.306;22.680;2023-08-17T12:47:36;7.90;;;5.30;;
70049;SDS011;57391;51.306;22.680;2023-08-17T12:50:04;9.20;;;5.30;;
70049;SDS011;57391;51.306;22.680;2023-08-17T12:52:31;9.30;;;5.40;;
70049;SDS011;57391;51.306;22.680;2023-08-17T12:54:58;10.00;;;6.00;;
70049;SDS011;57391;51.306;22.680;2023-08-17T12:57:25;9.20;;;5.40;;
70049;SDS011;57391;51.306;22.680;2023-08-17T12:59:53;10.90;;;5.90;;
70049;SDS011;57391;51.306;22.680;2023-08-17T13:02:20;8.20;;;5.60;;
70049;SDS011;57391;51.306;22.680;2023-08-17T13:04:47;11.80;;;5.60;;
70049;SDS011;57391;51.306;22.680;2023-08-17T13:07:14;8.00;;;5.30;;
70049;SDS011;57391;51.306;22.680;2023-08-17T13:09:42;11.80;;;5.60;;
70049;SDS011;57391;51.306;22.680;2023-08-17T13:12:09;7.20;;;5.40;;
70049;SDS011;57391;51.306;22.680;2023-08-17T13:14:36;7.80;;;4.80;;
70049;SDS011;57391;51.306;22.680;2023-08-17T13:17:03;7.20;;;4.60;;
70049;SDS011;57391;51.306;22.680;2023-08-17T13:19:30;9.70;;;5.10;;
70049;SDS011;57391;51.306;22.680;2023-08-17T13:21:56;9.40;;;5.70;;
70049;SDS011;57391;51.306;22.680;2023-08-17T13:24:23;9.40;;;5.70;;
70049;SDS011;57391;51.306;22.680;2023-08-17T13:26:50;9.00;;;5.20;;
70049;SDS011;57391;51.306;22.680;2023-08-17T13:29:20;7.30;;;4.80;;
70049;SDS011;57391;51.306;22.680;2023-08-17T13:31:47;9.60;;;4.90;;
70049;SDS011;57391;51.306;22.680;2023-08-17T13:34:15;7.40;;;4.60;;
70049;SDS011;57391;51.306;22.680;2023-08-17T13:36:42;9.40;;;4.80;;
70049;SDS011;57391;51.306;22.680;2023-08-17T13:39:08;9.40;;;5.20;;
70049;SDS011;57391;51.306;22.680;2023-08-17T13:41:37;7.40;;;4.80;;
70049;SDS011;57391;51.306;22.680;2023-08-17T13:44:04;7.00;;;5.00;;
70049;SDS011;57391;51.306;22.680;2023-08-17T13:46:31;8.80;;;4.50;;
70049;SDS011;57391;51.306;22.680;2023-08-17T13:48:58;11.70;;;5.10;;
70049;SDS011;57391;51.306;22.680;2023-08-17T13:51:25;8.60;;;5.10;;
70049;SDS011;57391;51.306;22.680;2023-08-17T13:53:52;6.40;;;4.70;;
70049;SDS011;57391;51.306;22.680;2023-08-17T13:56:19;11.40;;;5.20;;
70049;SDS011;57391;51.306;22.680;2023-08-17T13:58:46;7.60;;;4.90;;
70049;SDS011;57391;51.306;22.680;2023-08-17T14:01:13;9.20;;;5.00;;
70049;SDS011;57391;51.306;22.680;2023-08-17T14:03:40;6.50;;;4.60;;
70049;SDS011;57391;51.306;22.680;2023-08-17T14:06:09;7.10;;;4.70;;
70049;SDS011;57391;51.306;22.680;2023-08-17T14:08:36;6.30;;;4.30;;
70049;SDS011;57391;51.306;22.680;2023-08-17T14:11:03;6.70;;;4.30;;
70049;SDS011;57391;51.306;22.680;2023-08-17T14:13:30;6.80;;;4.20;;
70049;SDS011;57391;51.306;22.680;2023-08-17T14:15:57;9.20;;;4.20;;
70049;SDS011;57391;51.306;22.680;2023-08-17T14:18:26;6.00;;;4.40;;
70049;SDS011;57391;51.306;22.680;2023-08-17T14:20:53;8.10;;;4.40;;
70049;SDS011;57391;51.306;22.680;2023-08-17T14:23:19;6.70;;;4.30;;
70049;SDS011;57391;51.306;22.680;2023-08-17T14:25:46;9.40;;;4.40;;
70049;SDS011;57391;51.306;22.680;2023-08-17T14:28:13;7.10;;;4.40;;
70049;SDS011;57391;51.306;22.680;2023-08-17T14:30:40;7.30;;;4.40;;
70049;SDS011;57391;51.306;22.680;2023-08-17T14:33:07;8.00;;;4.40;;
70049;SDS011;57391;51.306;22.680;2023-08-17T14:35:34;8.30;;;4.80;;